sensor_id;sensor_type;location;lat;lon;timestamp;temperature;humidity
54202;DHT22;40108;53.152;5.844;2024-03-08T00:00:16;2.10;91.90
54202;DHT22;40108;53.152;5.844;2024-03-08T00:02:44;2.10;91.90
54202;DHT22;40108;53.152;5.844;2024-03-08T00:05:11;2.00;91.90
54202;DHT22;40108;53.152;5.844;2024-03-08T00:07:38;2.10;91.90
54202;DHT22;40108;53.152;5.844;2024-03-08T00:10:08;2.10;92.00
54202;DHT22;40108;53.152;5.844;2024-03-08T00:12:41;2.00;91.90
54202;DHT22;40108;53.152;5.844;2024-03-08T00:15:10;2.00;92.10
54202;DHT22;40108;53.152;5.844;2024-03-08T00:17:39;2.00;92.10
54202;DHT22;40108;53.152;5.844;2024-03-08T00:20:06;2.00;92.10
54202;DHT22;40108;53.152;5.844;2024-03-08T00:22:37;2.00;92.20
54202;DHT22;40108;53.152;5.844;2024-03-08T00:25:04;1.90;92.10
54202;DHT22;40108;53.152;5.844;2024-03-08T00:27:30;2.00;92.20
54202;DHT22;40108;53.152;5.844;2024-03-08T00:29:59;1.90;92.20
54202;DHT22;40108;53.152;5.844;2024-03-08T00:32:26;1.90;92.30
54202;DHT22;40108;53.152;5.844;2024-03-08T00:34:53;1.90;92.30
54202;DHT22;40108;53.152;5.844;2024-03-08T00:37:20;1.90;92.40
54202;DHT22;40108;53.152;5.844;2024-03-08T00:39:50;1.90;92.30
54202;DHT22;40108;53.152;5.844;2024-03-08T00:42:17;1.90;92.30
54202;DHT22;40108;53.152;5.844;2024-03-08T00:44:43;1.90;92.40
54202;DHT22;40108;53.152;5.844;2024-03-08T00:47:09;1.80;92.40
54202;DHT22;40108;53.152;5.844;2024-03-08T00:49:35;1.90;92.40
54202;DHT22;40108;53.152;5.844;2024-03-08T00:52:04;1.90;92.40
54202;DHT22;40108;53.152;5.844;2024-03-08T00:54:32;1.80;92.40
54202;DHT22;40108;53.152;5.844;2024-03-08T00:56:58;1.80;92.50
54202;DHT22;40108;53.152;5.844;2024-03-08T00:59:24;1.80;92.50
54202;DHT22;40108;53.152;5.844;2024-03-08T01:01:49;1.80;92.50
54202;DHT22;40108;53.152;5.844;2024-03-08T01:04:15;1.70;92.50
54202;DHT22;40108;53.152;5.844;2024-03-08T01:06:41;1.70;92.60
54202;DHT22;40108;53.152;5.844;2024-03-08T01:09:11;1.70;92.60
54202;DHT22;40108;53.152;5.844;2024-03-08T01:11:37;1.70;92.70
54202;DHT22;40108;53.152;5.844;2024-03-08T01:14:03;1.70;92.70
54202;DHT22;40108;53.152;5.844;2024-03-08T01:16:29;1.70;92.70
54202;DHT22;40108;53.152;5.844;2024-03-08T01:18:55;1.60;92.80
54202;DHT22;40108;53.152;5.844;2024-03-08T01:21:20;1.60;92.80
54202;DHT22;40108;53.152;5.844;2024-03-08T01:23:46;1.50;92.80
54202;DHT22;40108;53.152;5.844;2024-03-08T01:26:12;1.50;92.90
54202;DHT22;40108;53.152;5.844;2024-03-08T01:28:39;1.50;93.00
54202;DHT22;40108;53.152;5.844;2024-03-08T01:31:05;1.50;93.00
54202;DHT22;40108;53.152;5.844;2024-03-08T01:33:31;1.50;93.00
54202;DHT22;40108;53.152;5.844;2024-03-08T01:35:57;1.50;93.00
54202;DHT22;40108;53.152;5.844;2024-03-08T01:38:23;1.50;93.10
54202;DHT22;40108;53.152;5.844;2024-03-08T01:40:50;1.40;93.10
54202;DHT22;40108;53.152;5.844;2024-03-08T01:43:20;1.40;93.20
54202;DHT22;40108;53.152;5.844;2024-03-08T01:45:46;1.40;93.20
54202;DHT22;40108;53.152;5.844;2024-03-08T01:48:12;1.40;93.20
54202;DHT22;40108;53.152;5.844;2024-03-08T01:50:38;1.30;93.20
54202;DHT22;40108;53.152;5.844;2024-03-08T01:53:06;1.30;93.30
54202;DHT22;40108;53.152;5.844;2024-03-08T01:55:32;1.30;93.20
54202;DHT22;40108;53.152;5.844;2024-03-08T01:57:59;1.30;93.30
54202;DHT22;40108;53.152;5.844;2024-03-08T02:00:25;1.30;93.30
54202;DHT22;40108;53.152;5.844;2024-03-08T02:02:54;1.30;93.30
54202;DHT22;40108;53.152;5.844;2024-03-08T02:05:20;1.30;93.40
54202;DHT22;40108;53.152;5.844;2024-03-08T02:07:46;1.30;93.40
54202;DHT22;40108;53.152;5.844;2024-03-08T02:10:12;1.30;93.40
54202;DHT22;40108;53.152;5.844;2024-03-08T02:12:39;1.30;93.30
54202;DHT22;40108;53.152;5.844;2024-03-08T02:15:05;1.30;93.30
54202;DHT22;40108;53.152;5.844;2024-03-08T02:17:32;1.20;93.30
54202;DHT22;40108;53.152;5.844;2024-03-08T02:19:59;1.20;93.30
54202;DHT22;40108;53.152;5.844;2024-03-08T02:22:28;1.20;93.30
54202;DHT22;40108;53.152;5.844;2024-03-08T02:25:00;1.20;93.40
54202;DHT22;40108;53.152;5.844;2024-03-08T02:27:28;1.20;93.50
54202;DHT22;40108;53.152;5.844;2024-03-08T02:29:57;1.10;93.50
54202;DHT22;40108;53.152;5.844;2024-03-08T02:32:25;1.20;93.50
54202;DHT22;40108;53.152;5.844;2024-03-08T02:34:51;1.10;93.40
54202;DHT22;40108;53.152;5.844;2024-03-08T02:37:21;1.10;93.40
54202;DHT22;40108;53.152;5.844;2024-03-08T02:39:47;1.10;93.50
54202;DHT22;40108;53.152;5.844;2024-03-08T02:42:12;1.10;93.50
54202;DHT22;40108;53.152;5.844;2024-03-08T02:44:42;1.00;93.40
54202;DHT22;40108;53.152;5.844;2024-03-08T02:47:09;1.00;93.40
54202;DHT22;40108;53.152;5.844;2024-03-08T02:49:36;1.00;93.50
54202;DHT22;40108;53.152;5.844;2024-03-08T02:52:04;1.00;93.40
54202;DHT22;40108;53.152;5.844;2024-03-08T02:54:30;1.00;93.50
54202;DHT22;40108;53.152;5.844;2024-03-08T02:56:56;1.00;93.50
54202;DHT22;40108;53.152;5.844;2024-03-08T02:59:22;1.00;93.50
54202;DHT22;40108;53.152;5.844;2024-03-08T03:01:49;1.00;93.50
54202;DHT22;40108;53.152;5.844;2024-03-08T03:04:14;1.00;93.40
54202;DHT22;40108;53.152;5.844;2024-03-08T03:06:40;1.00;93.40
54202;DHT22;40108;53.152;5.844;2024-03-08T03:09:06;1.00;93.30
54202;DHT22;40108;53.152;5.844;2024-03-08T03:11:32;1.00;93.30
54202;DHT22;40108;53.152;5.844;2024-03-08T03:13:58;1.00;93.30
54202;DHT22;40108;53.152;5.844;2024-03-08T03:16:24;1.10;93.30
54202;DHT22;40108;53.152;5.844;2024-03-08T03:18:49;1.00;93.30
54202;DHT22;40108;53.152;5.844;2024-03-08T03:21:15;1.10;93.30
54202;DHT22;40108;53.152;5.844;2024-03-08T03:23:41;1.10;93.20
54202;DHT22;40108;53.152;5.844;2024-03-08T03:26:09;1.10;93.10
54202;DHT22;40108;53.152;5.844;2024-03-08T03:28:38;1.10;93.10
54202;DHT22;40108;53.152;5.844;2024-03-08T03:31:07;1.10;93.00
54202;DHT22;40108;53.152;5.844;2024-03-08T03:33:33;1.10;92.90
54202;DHT22;40108;53.152;5.844;2024-03-08T03:36:03;1.10;92.80
54202;DHT22;40108;53.152;5.844;2024-03-08T03:38:30;1.10;92.80
54202;DHT22;40108;53.152;5.844;2024-03-08T03:40:56;1.10;92.80
54202;DHT22;40108;53.152;5.844;2024-03-08T03:43:29;1.10;92.70
54202;DHT22;40108;53.152;5.844;2024-03-08T03:45:55;1.00;92.70
54202;DHT22;40108;53.152;5.844;2024-03-08T03:48:21;1.00;92.60
54202;DHT22;40108;53.152;5.844;2024-03-08T03:50:46;1.00;92.60
54202;DHT22;40108;53.152;5.844;2024-03-08T03:53:12;1.00;92.50
54202;DHT22;40108;53.152;5.844;2024-03-08T03:55:38;1.10;92.40
54202;DHT22;40108;53.152;5.844;2024-03-08T03:58:04;1.10;92.40
54202;DHT22;40108;53.152;5.844;2024-03-08T04:00:30;1.10;92.30
54202;DHT22;40108;53.152;5.844;2024-03-08T04:02:56;1.10;92.20
54202;DHT22;40108;53.152;5.844;2024-03-08T04:05:24;1.20;92.10
54202;DHT22;40108;53.152;5.844;2024-03-08T04:07:50;1.10;92.00
54202;DHT22;40108;53.152;5.844;2024-03-08T04:10:15;1.20;91.90
54202;DHT22;40108;53.152;5.844;2024-03-08T04:12:41;1.20;91.70
54202;DHT22;40108;53.152;5.844;2024-03-08T04:15:08;1.20;91.70
54202;DHT22;40108;53.152;5.844;2024-03-08T04:17:34;1.10;91.60
54202;DHT22;40108;53.152;5.844;2024-03-08T04:20:03;1.10;91.60
54202;DHT22;40108;53.152;5.844;2024-03-08T04:22:38;1.10;91.60
54202;DHT22;40108;53.152;5.844;2024-03-08T04:25:05;1.10;91.60
54202;DHT22;40108;53.152;5.844;2024-03-08T04:27:35;1.00;91.60
54202;DHT22;40108;53.152;5.844;2024-03-08T04:30:01;1.00;91.60
54202;DHT22;40108;53.152;5.844;2024-03-08T04:32:27;1.00;91.60
54202;DHT22;40108;53.152;5.844;2024-03-08T04:34:55;1.00;91.60
54202;DHT22;40108;53.152;5.844;2024-03-08T04:37:22;1.00;91.60
54202;DHT22;40108;53.152;5.844;2024-03-08T04:39:48;1.10;91.50
54202;DHT22;40108;53.152;5.844;2024-03-08T04:42:14;1.00;91.30
54202;DHT22;40108;53.152;5.844;2024-03-08T04:44:40;1.00;91.30
54202;DHT22;40108;53.152;5.844;2024-03-08T04:47:06;1.10;91.30
54202;DHT22;40108;53.152;5.844;2024-03-08T04:49:35;1.00;91.30
54202;DHT22;40108;53.152;5.844;2024-03-08T04:52:02;1.00;91.30
54202;DHT22;40108;53.152;5.844;2024-03-08T04:54:28;1.00;91.20
54202;DHT22;40108;53.152;5.844;2024-03-08T04:56:54;1.00;91.30
54202;DHT22;40108;53.152;5.844;2024-03-08T04:59:20;1.00;91.20
54202;DHT22;40108;53.152;5.844;2024-03-08T05:01:45;1.00;91.30
54202;DHT22;40108;53.152;5.844;2024-03-08T05:04:11;1.00;91.30
54202;DHT22;40108;53.152;5.844;2024-03-08T05:06:37;0.90;91.20
54202;DHT22;40108;53.152;5.844;2024-03-08T05:09:02;0.90;91.20
54202;DHT22;40108;53.152;5.844;2024-03-08T05:11:42;0.90;91.30
54202;DHT22;40108;53.152;5.844;2024-03-08T05:14:08;0.90;91.20
54202;DHT22;40108;53.152;5.844;2024-03-08T05:16:34;0.90;91.30
54202;DHT22;40108;53.152;5.844;2024-03-08T05:19:00;0.80;91.30
54202;DHT22;40108;53.152;5.844;2024-03-08T05:21:25;0.80;91.40
54202;DHT22;40108;53.152;5.844;2024-03-08T05:23:51;0.80;91.40
54202;DHT22;40108;53.152;5.844;2024-03-08T05:26:17;0.80;91.50
54202;DHT22;40108;53.152;5.844;2024-03-08T05:28:43;0.70;91.50
54202;DHT22;40108;53.152;5.844;2024-03-08T05:31:08;0.70;91.50
54202;DHT22;40108;53.152;5.844;2024-03-08T05:33:34;0.70;91.60
54202;DHT22;40108;53.152;5.844;2024-03-08T05:36:00;0.70;91.70
54202;DHT22;40108;53.152;5.844;2024-03-08T05:38:27;0.70;91.70
54202;DHT22;40108;53.152;5.844;2024-03-08T05:40:54;0.70;91.80
54202;DHT22;40108;53.152;5.844;2024-03-08T05:43:20;0.60;91.90
54202;DHT22;40108;53.152;5.844;2024-03-08T05:45:46;0.60;91.90
54202;DHT22;40108;53.152;5.844;2024-03-08T05:48:13;0.60;91.90
54202;DHT22;40108;53.152;5.844;2024-03-08T05:50:39;0.60;91.80
54202;DHT22;40108;53.152;5.844;2024-03-08T05:53:05;0.50;91.90
54202;DHT22;40108;53.152;5.844;2024-03-08T05:55:35;0.50;91.90
54202;DHT22;40108;53.152;5.844;2024-03-08T05:58:01;0.50;92.00
54202;DHT22;40108;53.152;5.844;2024-03-08T06:00:27;0.50;92.00
54202;DHT22;40108;53.152;5.844;2024-03-08T06:02:52;0.50;92.00
54202;DHT22;40108;53.152;5.844;2024-03-08T06:05:18;0.40;92.00
54202;DHT22;40108;53.152;5.844;2024-03-08T06:07:44;0.40;92.10
54202;DHT22;40108;53.152;5.844;2024-03-08T06:10:11;0.40;92.10
54202;DHT22;40108;53.152;5.844;2024-03-08T06:12:38;0.40;92.10
54202;DHT22;40108;53.152;5.844;2024-03-08T06:15:08;0.40;92.10
54202;DHT22;40108;53.152;5.844;2024-03-08T06:17:40;0.40;92.10
54202;DHT22;40108;53.152;5.844;2024-03-08T06:20:07;0.40;92.10
54202;DHT22;40108;53.152;5.844;2024-03-08T06:22:39;0.40;92.10
54202;DHT22;40108;53.152;5.844;2024-03-08T06:25:07;0.40;92.10
54202;DHT22;40108;53.152;5.844;2024-03-08T06:27:33;0.30;92.10
54202;DHT22;40108;53.152;5.844;2024-03-08T06:30:00;0.30;92.20
54202;DHT22;40108;53.152;5.844;2024-03-08T06:32:25;0.30;92.10
54202;DHT22;40108;53.152;5.844;2024-03-08T06:34:51;0.30;92.10
54202;DHT22;40108;53.152;5.844;2024-03-08T06:37:17;0.30;92.10
54202;DHT22;40108;53.152;5.844;2024-03-08T06:39:48;0.30;92.20
54202;DHT22;40108;53.152;5.844;2024-03-08T06:42:14;0.30;92.20
54202;DHT22;40108;53.152;5.844;2024-03-08T06:44:39;0.30;92.20
54202;DHT22;40108;53.152;5.844;2024-03-08T06:47:14;0.40;92.10
54202;DHT22;40108;53.152;5.844;2024-03-08T06:49:43;0.40;92.10
54202;DHT22;40108;53.152;5.844;2024-03-08T06:52:10;0.40;92.20
54202;DHT22;40108;53.152;5.844;2024-03-08T06:54:36;0.50;92.20
54202;DHT22;40108;53.152;5.844;2024-03-08T06:57:03;0.50;92.10
54202;DHT22;40108;53.152;5.844;2024-03-08T06:59:29;0.50;92.10
54202;DHT22;40108;53.152;5.844;2024-03-08T07:01:55;0.60;92.10
54202;DHT22;40108;53.152;5.844;2024-03-08T07:04:21;0.60;92.10
54202;DHT22;40108;53.152;5.844;2024-03-08T07:06:49;0.70;92.00
54202;DHT22;40108;53.152;5.844;2024-03-08T07:09:16;0.70;91.70
54202;DHT22;40108;53.152;5.844;2024-03-08T07:11:44;0.70;91.50
54202;DHT22;40108;53.152;5.844;2024-03-08T07:14:10;0.80;91.40
54202;DHT22;40108;53.152;5.844;2024-03-08T07:16:35;0.80;91.00
54202;DHT22;40108;53.152;5.844;2024-03-08T07:19:01;0.90;90.80
54202;DHT22;40108;53.152;5.844;2024-03-08T07:21:28;0.90;90.70
54202;DHT22;40108;53.152;5.844;2024-03-08T07:23:54;1.00;90.60
54202;DHT22;40108;53.152;5.844;2024-03-08T07:26:26;1.00;90.50
54202;DHT22;40108;53.152;5.844;2024-03-08T07:28:52;1.10;90.40
54202;DHT22;40108;53.152;5.844;2024-03-08T07:31:19;1.20;90.10
54202;DHT22;40108;53.152;5.844;2024-03-08T07:33:51;1.20;90.20
54202;DHT22;40108;53.152;5.844;2024-03-08T07:36:19;1.30;89.90
54202;DHT22;40108;53.152;5.844;2024-03-08T07:38:45;1.30;90.40
54202;DHT22;40108;53.152;5.844;2024-03-08T07:41:15;1.40;89.90
54202;DHT22;40108;53.152;5.844;2024-03-08T07:43:41;1.40;89.50
54202;DHT22;40108;53.152;5.844;2024-03-08T07:46:06;1.50;89.10
54202;DHT22;40108;53.152;5.844;2024-03-08T07:48:32;1.70;88.90
54202;DHT22;40108;53.152;5.844;2024-03-08T07:50:58;1.70;89.00
54202;DHT22;40108;53.152;5.844;2024-03-08T07:53:23;1.80;89.00
54202;DHT22;40108;53.152;5.844;2024-03-08T07:55:52;1.90;88.30
54202;DHT22;40108;53.152;5.844;2024-03-08T07:58:18;2.00;87.90
54202;DHT22;40108;53.152;5.844;2024-03-08T08:00:44;2.10;87.70
54202;DHT22;40108;53.152;5.844;2024-03-08T08:03:09;2.20;87.00
54202;DHT22;40108;53.152;5.844;2024-03-08T08:05:35;2.30;87.60
54202;DHT22;40108;53.152;5.844;2024-03-08T08:08:04;2.50;86.90
54202;DHT22;40108;53.152;5.844;2024-03-08T08:10:33;2.60;86.10
54202;DHT22;40108;53.152;5.844;2024-03-08T08:12:59;2.70;86.60
54202;DHT22;40108;53.152;5.844;2024-03-08T08:15:24;2.90;86.00
54202;DHT22;40108;53.152;5.844;2024-03-08T08:17:50;3.00;84.40
54202;DHT22;40108;53.152;5.844;2024-03-08T08:20:17;3.10;84.80
54202;DHT22;40108;53.152;5.844;2024-03-08T08:22:44;3.20;84.20
54202;DHT22;40108;53.152;5.844;2024-03-08T08:25:09;3.30;84.40
54202;DHT22;40108;53.152;5.844;2024-03-08T08:27:38;3.60;84.90
54202;DHT22;40108;53.152;5.844;2024-03-08T08:30:11;3.70;82.80
54202;DHT22;40108;53.152;5.844;2024-03-08T08:32:37;3.80;82.80
54202;DHT22;40108;53.152;5.844;2024-03-08T08:35:05;4.00;82.40
54202;DHT22;40108;53.152;5.844;2024-03-08T08:37:32;3.90;81.60
54202;DHT22;40108;53.152;5.844;2024-03-08T08:39:58;4.00;80.10
54202;DHT22;40108;53.152;5.844;2024-03-08T08:42:24;4.20;81.30
54202;DHT22;40108;53.152;5.844;2024-03-08T08:44:50;4.20;80.80
54202;DHT22;40108;53.152;5.844;2024-03-08T08:47:17;4.50;80.70
54202;DHT22;40108;53.152;5.844;2024-03-08T08:49:44;4.50;79.50
54202;DHT22;40108;53.152;5.844;2024-03-08T08:52:12;4.70;80.00
54202;DHT22;40108;53.152;5.844;2024-03-08T08:54:38;4.80;79.00
54202;DHT22;40108;53.152;5.844;2024-03-08T08:57:04;4.80;78.20
54202;DHT22;40108;53.152;5.844;2024-03-08T08:59:34;5.00;78.30
54202;DHT22;40108;53.152;5.844;2024-03-08T09:02:02;5.10;78.30
54202;DHT22;40108;53.152;5.844;2024-03-08T09:04:29;5.20;76.80
54202;DHT22;40108;53.152;5.844;2024-03-08T09:06:56;5.30;76.90
54202;DHT22;40108;53.152;5.844;2024-03-08T09:09:22;5.40;76.70
54202;DHT22;40108;53.152;5.844;2024-03-08T09:11:48;5.50;76.20
54202;DHT22;40108;53.152;5.844;2024-03-08T09:14:15;5.50;74.70
54202;DHT22;40108;53.152;5.844;2024-03-08T09:16:41;5.50;73.30
54202;DHT22;40108;53.152;5.844;2024-03-08T09:19:06;5.50;73.60
54202;DHT22;40108;53.152;5.844;2024-03-08T09:21:33;5.50;73.90
54202;DHT22;40108;53.152;5.844;2024-03-08T09:24:00;5.60;73.40
54202;DHT22;40108;53.152;5.844;2024-03-08T09:26:26;5.60;72.40
54202;DHT22;40108;53.152;5.844;2024-03-08T09:28:52;5.50;71.90
54202;DHT22;40108;53.152;5.844;2024-03-08T09:31:21;5.60;71.00
54202;DHT22;40108;53.152;5.844;2024-03-08T09:33:46;5.60;72.40
54202;DHT22;40108;53.152;5.844;2024-03-08T09:36:13;5.70;71.30
54202;DHT22;40108;53.152;5.844;2024-03-08T09:38:40;5.90;72.20
54202;DHT22;40108;53.152;5.844;2024-03-08T09:41:06;5.90;70.50
54202;DHT22;40108;53.152;5.844;2024-03-08T09:43:31;5.90;70.40
54202;DHT22;40108;53.152;5.844;2024-03-08T09:45:58;5.90;70.40
54202;DHT22;40108;53.152;5.844;2024-03-08T09:48:24;6.10;71.90
54202;DHT22;40108;53.152;5.844;2024-03-08T09:50:51;6.20;70.90
54202;DHT22;40108;53.152;5.844;2024-03-08T09:53:17;6.20;69.30
54202;DHT22;40108;53.152;5.844;2024-03-08T09:55:43;6.40;69.70
54202;DHT22;40108;53.152;5.844;2024-03-08T09:58:15;6.60;70.50
54202;DHT22;40108;53.152;5.844;2024-03-08T10:00:43;6.70;69.90
54202;DHT22;40108;53.152;5.844;2024-03-08T10:03:09;6.80;68.50
54202;DHT22;40108;53.152;5.844;2024-03-08T10:05:36;6.90;68.10
54202;DHT22;40108;53.152;5.844;2024-03-08T10:08:02;7.10;68.30
54202;DHT22;40108;53.152;5.844;2024-03-08T10:10:28;7.30;68.30
54202;DHT22;40108;53.152;5.844;2024-03-08T10:12:55;7.40;68.60
54202;DHT22;40108;53.152;5.844;2024-03-08T10:15:22;7.20;66.60
54202;DHT22;40108;53.152;5.844;2024-03-08T10:17:47;7.20;68.20
54202;DHT22;40108;53.152;5.844;2024-03-08T10:20:18;7.40;67.20
54202;DHT22;40108;53.152;5.844;2024-03-08T10:22:44;7.40;66.80
54202;DHT22;40108;53.152;5.844;2024-03-08T10:25:11;7.50;66.70
54202;DHT22;40108;53.152;5.844;2024-03-08T10:27:41;7.60;66.30
54202;DHT22;40108;53.152;5.844;2024-03-08T10:30:15;7.70;65.70
54202;DHT22;40108;53.152;5.844;2024-03-08T10:32:41;7.80;66.40
54202;DHT22;40108;53.152;5.844;2024-03-08T10:35:10;7.70;65.10
54202;DHT22;40108;53.152;5.844;2024-03-08T10:37:56;7.70;65.90
54202;DHT22;40108;53.152;5.844;2024-03-08T10:40:27;7.90;65.70
54202;DHT22;40108;53.152;5.844;2024-03-08T10:42:57;7.90;66.80
54202;DHT22;40108;53.152;5.844;2024-03-08T10:45:37;7.90;65.70
54202;DHT22;40108;53.152;5.844;2024-03-08T10:50:33;8.00;65.70
54202;DHT22;40108;53.152;5.844;2024-03-08T10:53:00;7.90;64.80
54202;DHT22;40108;53.152;5.844;2024-03-08T10:55:28;8.10;66.10
54202;DHT22;40108;53.152;5.844;2024-03-08T10:57:54;8.20;65.20
54202;DHT22;40108;53.152;5.844;2024-03-08T11:00:20;8.40;65.30
54202;DHT22;40108;53.152;5.844;2024-03-08T11:02:55;8.30;64.50
54202;DHT22;40108;53.152;5.844;2024-03-08T11:05:51;8.50;64.70
54202;DHT22;40108;53.152;5.844;2024-03-08T11:08:20;8.70;63.40
54202;DHT22;40108;53.152;5.844;2024-03-08T11:10:53;8.70;63.10
54202;DHT22;40108;53.152;5.844;2024-03-08T11:13:40;8.80;63.70
54202;DHT22;40108;53.152;5.844;2024-03-08T11:18:59;8.80;63.60
54202;DHT22;40108;53.152;5.844;2024-03-08T11:21:30;8.90;64.50
54202;DHT22;40108;53.152;5.844;2024-03-08T11:24:12;9.10;63.50
54202;DHT22;40108;53.152;5.844;2024-03-08T11:26:42;8.80;63.40
54202;DHT22;40108;53.152;5.844;2024-03-08T11:32:16;9.20;63.50
54202;DHT22;40108;53.152;5.844;2024-03-08T11:34:46;9.20;63.70
54202;DHT22;40108;53.152;5.844;2024-03-08T11:37:20;9.10;63.30
54202;DHT22;40108;53.152;5.844;2024-03-08T11:39:55;9.20;63.50
54202;DHT22;40108;53.152;5.844;2024-03-08T11:42:25;9.20;64.70
54202;DHT22;40108;53.152;5.844;2024-03-08T11:44:54;9.30;63.30
54202;DHT22;40108;53.152;5.844;2024-03-08T11:47:21;9.30;63.30
54202;DHT22;40108;53.152;5.844;2024-03-08T11:49:46;9.30;64.10
54202;DHT22;40108;53.152;5.844;2024-03-08T11:52:17;9.40;63.70
54202;DHT22;40108;53.152;5.844;2024-03-08T11:54:48;9.20;62.00
54202;DHT22;40108;53.152;5.844;2024-03-08T11:57:22;9.20;63.80
54202;DHT22;40108;53.152;5.844;2024-03-08T11:59:52;9.20;63.90
54202;DHT22;40108;53.152;5.844;2024-03-08T12:02:17;9.10;63.60
54202;DHT22;40108;53.152;5.844;2024-03-08T12:04:45;9.10;63.70
54202;DHT22;40108;53.152;5.844;2024-03-08T12:07:13;9.20;64.60
54202;DHT22;40108;53.152;5.844;2024-03-08T12:09:42;9.40;64.30
54202;DHT22;40108;53.152;5.844;2024-03-08T12:12:12;9.70;64.70
54202;DHT22;40108;53.152;5.844;2024-03-08T12:14:38;9.70;63.00
54202;DHT22;40108;53.152;5.844;2024-03-08T12:17:04;9.50;62.60
54202;DHT22;40108;53.152;5.844;2024-03-08T12:19:30;9.30;63.10
54202;DHT22;40108;53.152;5.844;2024-03-08T12:21:56;9.20;63.50
54202;DHT22;40108;53.152;5.844;2024-03-08T12:24:22;9.10;64.30
54202;DHT22;40108;53.152;5.844;2024-03-08T12:26:48;9.20;64.70
54202;DHT22;40108;53.152;5.844;2024-03-08T12:29:19;9.00;64.90
54202;DHT22;40108;53.152;5.844;2024-03-08T12:31:52;9.10;65.30
54202;DHT22;40108;53.152;5.844;2024-03-08T12:34:21;9.20;64.60
54202;DHT22;40108;53.152;5.844;2024-03-08T12:36:51;9.30;64.30
54202;DHT22;40108;53.152;5.844;2024-03-08T12:39:21;9.30;64.30
54202;DHT22;40108;53.152;5.844;2024-03-08T12:41:53;9.50;65.60
54202;DHT22;40108;53.152;5.844;2024-03-08T12:44:19;9.50;65.80
54202;DHT22;40108;53.152;5.844;2024-03-08T12:46:47;9.50;65.80
54202;DHT22;40108;53.152;5.844;2024-03-08T12:49:13;9.60;64.60
54202;DHT22;40108;53.152;5.844;2024-03-08T12:51:44;9.70;64.30
54202;DHT22;40108;53.152;5.844;2024-03-08T12:54:10;9.60;64.20
54202;DHT22;40108;53.152;5.844;2024-03-08T12:56:36;9.50;65.20
54202;DHT22;40108;53.152;5.844;2024-03-08T12:59:04;9.60;65.80
54202;DHT22;40108;53.152;5.844;2024-03-08T13:01:31;9.60;65.10
54202;DHT22;40108;53.152;5.844;2024-03-08T13:04:02;9.50;63.30
54202;DHT22;40108;53.152;5.844;2024-03-08T13:06:29;9.30;64.70
54202;DHT22;40108;53.152;5.844;2024-03-08T13:08:56;9.30;64.80
54202;DHT22;40108;53.152;5.844;2024-03-08T13:11:24;9.40;65.30
54202;DHT22;40108;53.152;5.844;2024-03-08T13:13:50;9.40;64.80
54202;DHT22;40108;53.152;5.844;2024-03-08T13:16:15;9.20;65.40
54202;DHT22;40108;53.152;5.844;2024-03-08T13:18:43;9.10;65.20
54202;DHT22;40108;53.152;5.844;2024-03-08T13:21:09;9.10;65.50
54202;DHT22;40108;53.152;5.844;2024-03-08T13:23:37;9.00;66.00
54202;DHT22;40108;53.152;5.844;2024-03-08T13:26:06;8.90;63.60
54202;DHT22;40108;53.152;5.844;2024-03-08T13:28:32;8.80;64.60
54202;DHT22;40108;53.152;5.844;2024-03-08T13:31:05;8.70;65.20
54202;DHT22;40108;53.152;5.844;2024-03-08T13:33:36;8.70;65.40
54202;DHT22;40108;53.152;5.844;2024-03-08T13:36:03;8.70;65.40
54202;DHT22;40108;53.152;5.844;2024-03-08T13:38:29;8.70;65.20
54202;DHT22;40108;53.152;5.844;2024-03-08T13:40:58;8.70;65.60
54202;DHT22;40108;53.152;5.844;2024-03-08T13:43:24;8.70;66.50
54202;DHT22;40108;53.152;5.844;2024-03-08T13:45:50;8.70;65.70
54202;DHT22;40108;53.152;5.844;2024-03-08T13:48:15;8.70;65.10
54202;DHT22;40108;53.152;5.844;2024-03-08T13:50:42;8.70;64.70
54202;DHT22;40108;53.152;5.844;2024-03-08T13:53:07;8.70;66.60
54202;DHT22;40108;53.152;5.844;2024-03-08T13:55:35;8.70;67.40
54202;DHT22;40108;53.152;5.844;2024-03-08T13:58:01;8.70;66.60
54202;DHT22;40108;53.152;5.844;2024-03-08T14:00:28;8.70;65.90
54202;DHT22;40108;53.152;5.844;2024-03-08T14:02:59;8.70;66.20
54202;DHT22;40108;53.152;5.844;2024-03-08T14:05:24;8.60;66.80
54202;DHT22;40108;53.152;5.844;2024-03-08T14:07:50;8.70;66.70
54202;DHT22;40108;53.152;5.844;2024-03-08T14:10:16;8.70;67.10
54202;DHT22;40108;53.152;5.844;2024-03-08T14:12:45;8.60;66.30
54202;DHT22;40108;53.152;5.844;2024-03-08T14:15:13;8.70;67.20
54202;DHT22;40108;53.152;5.844;2024-03-08T14:17:39;8.70;66.10
54202;DHT22;40108;53.152;5.844;2024-03-08T14:20:06;8.70;65.90
54202;DHT22;40108;53.152;5.844;2024-03-08T14:22:32;8.70;66.50
54202;DHT22;40108;53.152;5.844;2024-03-08T14:24:57;8.70;65.80
54202;DHT22;40108;53.152;5.844;2024-03-08T14:27:23;8.70;65.60
54202;DHT22;40108;53.152;5.844;2024-03-08T14:29:49;8.80;65.60
54202;DHT22;40108;53.152;5.844;2024-03-08T14:32:14;8.80;65.90
54202;DHT22;40108;53.152;5.844;2024-03-08T14:34:41;8.80;65.50
54202;DHT22;40108;53.152;5.844;2024-03-08T14:37:06;8.80;64.20
54202;DHT22;40108;53.152;5.844;2024-03-08T14:39:37;8.80;65.10
54202;DHT22;40108;53.152;5.844;2024-03-08T14:42:03;8.80;65.60
54202;DHT22;40108;53.152;5.844;2024-03-08T14:44:29;8.70;64.80
54202;DHT22;40108;53.152;5.844;2024-03-08T14:46:58;8.70;64.70
54202;DHT22;40108;53.152;5.844;2024-03-08T14:49:25;8.70;66.80
54202;DHT22;40108;53.152;5.844;2024-03-08T14:51:55;8.70;67.60
54202;DHT22;40108;53.152;5.844;2024-03-08T14:54:21;8.70;65.10
54202;DHT22;40108;53.152;5.844;2024-03-08T14:56:48;8.70;64.70
54202;DHT22;40108;53.152;5.844;2024-03-08T14:59:16;8.70;66.00
54202;DHT22;40108;53.152;5.844;2024-03-08T15:01:42;8.70;65.20
54202;DHT22;40108;53.152;5.844;2024-03-08T15:04:09;8.60;64.70
54202;DHT22;40108;53.152;5.844;2024-03-08T15:06:39;8.60;65.80
54202;DHT22;40108;53.152;5.844;2024-03-08T15:09:05;8.60;65.80
54202;DHT22;40108;53.152;5.844;2024-03-08T15:11:51;8.60;66.30
54202;DHT22;40108;53.152;5.844;2024-03-08T15:14:17;8.60;65.90
54202;DHT22;40108;53.152;5.844;2024-03-08T15:16:44;8.60;65.60
54202;DHT22;40108;53.152;5.844;2024-03-08T15:19:12;8.60;65.70
54202;DHT22;40108;53.152;5.844;2024-03-08T15:21:40;8.50;64.80
54202;DHT22;40108;53.152;5.844;2024-03-08T15:24:07;8.50;65.10
54202;DHT22;40108;53.152;5.844;2024-03-08T15:26:41;8.50;65.40
54202;DHT22;40108;53.152;5.844;2024-03-08T15:29:08;8.50;65.20
54202;DHT22;40108;53.152;5.844;2024-03-08T15:31:34;8.40;64.40
54202;DHT22;40108;53.152;5.844;2024-03-08T15:34:00;8.40;65.00
54202;DHT22;40108;53.152;5.844;2024-03-08T15:36:29;8.40;65.30
54202;DHT22;40108;53.152;5.844;2024-03-08T15:38:57;8.40;66.00
54202;DHT22;40108;53.152;5.844;2024-03-08T15:41:23;8.30;66.80
54202;DHT22;40108;53.152;5.844;2024-03-08T15:43:48;8.30;66.30
54202;DHT22;40108;53.152;5.844;2024-03-08T15:46:15;8.30;67.70
54202;DHT22;40108;53.152;5.844;2024-03-08T15:48:41;8.30;68.00
54202;DHT22;40108;53.152;5.844;2024-03-08T15:51:08;8.20;67.20
54202;DHT22;40108;53.152;5.844;2024-03-08T15:53:36;8.20;66.30